sensor_id;sensor_type;location;lat;lon;timestamp;temperature;humidity
48376;DHT22;34178;50.904;11.560;2022-10-16T02:18:47;12.90;99.90
48376;DHT22;34178;50.904;11.560;2022-10-16T02:21:29;12.90;99.90
48376;DHT22;34178;50.904;11.560;2022-10-16T02:39:21;12.70;99.90
48376;DHT22;34178;50.904;11.560;2022-10-16T02:41:47;12.60;99.90
48376;DHT22;34178;50.904;11.560;2022-10-16T02:44:13;12.60;99.90
48376;DHT22;34178;50.904;11.560;2022-10-16T02:49:14;12.50;99.90
48376;DHT22;34178;50.904;11.560;2022-10-16T02:51:40;12.50;99.90
48376;DHT22;34178;50.904;11.560;2022-10-16T02:54:05;12.50;99.90
48376;DHT22;34178;50.904;11.560;2022-10-16T02:56:31;12.40;99.90
48376;DHT22;34178;50.904;11.560;2022-10-16T02:58:57;12.40;99.90
48376;DHT22;34178;50.904;11.560;2022-10-16T03:01:23;12.50;99.90
48376;DHT22;34178;50.904;11.560;2022-10-16T03:03:49;12.50;99.90
48376;DHT22;34178;50.904;11.560;2022-10-16T03:06:15;12.50;99.90
48376;DHT22;34178;50.904;11.560;2022-10-16T03:08:40;12.50;99.90
48376;DHT22;34178;50.904;11.560;2022-10-16T03:11:06;12.50;99.90
48376;DHT22;34178;50.904;11.560;2022-10-16T03:13:31;12.50;99.90
48376;DHT22;34178;50.904;11.560;2022-10-16T03:15:57;12.60;99.90
48376;DHT22;34178;50.904;11.560;2022-10-16T03:18:23;12.60;99.90
48376;DHT22;34178;50.904;11.560;2022-10-16T03:20:48;12.70;99.90
48376;DHT22;34178;50.904;11.560;2022-10-16T03:23:14;12.60;99.90
48376;DHT22;34178;50.904;11.560;2022-10-16T03:25:40;12.70;99.90
48376;DHT22;34178;50.904;11.560;2022-10-16T03:33:16;12.70;99.90
48376;DHT22;34178;50.904;11.560;2022-10-16T03:35:41;12.60;99.90
48376;DHT22;34178;50.904;11.560;2022-10-16T03:38:22;12.60;99.90
48376;DHT22;34178;50.904;11.560;2022-10-16T03:40:48;12.60;99.90
48376;DHT22;34178;50.904;11.560;2022-10-16T03:43:13;12.60;99.90
48376;DHT22;34178;50.904;11.560;2022-10-16T03:45:39;12.60;99.90
48376;DHT22;34178;50.904;11.560;2022-10-16T04:32:08;12.50;99.90
48376;DHT22;34178;50.904;11.560;2022-10-16T04:34:34;12.60;99.90
48376;DHT22;34178;50.904;11.560;2022-10-16T04:47:43;12.80;99.90
48376;DHT22;34178;50.904;11.560;2022-10-16T04:50:09;12.80;99.90
48376;DHT22;34178;50.904;11.560;2022-10-16T04:52:34;12.80;99.90
48376;DHT22;34178;50.904;11.560;2022-10-16T04:55:00;12.90;99.90
48376;DHT22;34178;50.904;11.560;2022-10-16T05:10:24;13.10;99.90
48376;DHT22;34178;50.904;11.560;2022-10-16T05:12:50;13.10;99.90
48376;DHT22;34178;50.904;11.560;2022-10-16T05:15:17;13.10;99.90
48376;DHT22;34178;50.904;11.560;2022-10-16T06:04:17;13.40;99.90
48376;DHT22;34178;50.904;11.560;2022-10-16T06:06:43;13.40;99.90
48376;DHT22;34178;50.904;11.560;2022-10-16T06:09:09;13.40;99.90
48376;DHT22;34178;50.904;11.560;2022-10-16T06:11:36;13.50;99.90
48376;DHT22;34178;50.904;11.560;2022-10-16T06:14:02;13.50;99.90
48376;DHT22;34178;50.904;11.560;2022-10-16T06:16:32;13.50;99.90
48376;DHT22;34178;50.904;11.560;2022-10-16T06:21:33;13.60;99.90
48376;DHT22;34178;50.904;11.560;2022-10-16T06:23:59;13.70;99.90
48376;DHT22;34178;50.904;11.560;2022-10-16T06:26:27;13.70;99.90
48376;DHT22;34178;50.904;11.560;2022-10-16T06:31:54;13.80;99.90
48376;DHT22;34178;50.904;11.560;2022-10-16T06:34:20;13.90;99.90
48376;DHT22;34178;50.904;11.560;2022-10-16T06:36:45;13.90;99.90
48376;DHT22;34178;50.904;11.560;2022-10-16T06:39:11;14.00;99.90
48376;DHT22;34178;50.904;11.560;2022-10-16T06:41:37;14.10;99.90
48376;DHT22;34178;50.904;11.560;2022-10-16T06:44:05;14.10;99.90
48376;DHT22;34178;50.904;11.560;2022-10-16T06:46:31;14.20;99.90
48376;DHT22;34178;50.904;11.560;2022-10-16T06:48:57;14.30;99.90
48376;DHT22;34178;50.904;11.560;2022-10-16T06:51:24;14.30;99.90
48376;DHT22;34178;50.904;11.560;2022-10-16T06:53:52;14.40;99.90
48376;DHT22;34178;50.904;11.560;2022-10-16T06:56:22;14.50;99.90
48376;DHT22;34178;50.904;11.560;2022-10-16T06:58:49;14.50;99.90
48376;DHT22;34178;50.904;11.560;2022-10-16T07:01:17;14.60;99.90
48376;DHT22;34178;50.904;11.560;2022-10-16T07:03:44;14.70;99.90
48376;DHT22;34178;50.904;11.560;2022-10-16T07:06:12;14.70;99.90
48376;DHT22;34178;50.904;11.560;2022-10-16T07:08:40;14.90;99.90
48376;DHT22;34178;50.904;11.560;2022-10-16T07:11:08;15.00;99.90
48376;DHT22;34178;50.904;11.560;2022-10-16T07:13:36;15.00;99.90
48376;DHT22;34178;50.904;11.560;2022-10-16T07:16:10;15.00;99.90
48376;DHT22;34178;50.904;11.560;2022-10-16T07:18:36;15.00;99.90
48376;DHT22;34178;50.904;11.560;2022-10-16T07:21:10;15.00;99.90
48376;DHT22;34178;50.904;11.560;2022-10-16T07:23:37;15.10;99.90
48376;DHT22;34178;50.904;11.560;2022-10-16T07:26:03;15.10;99.90
48376;DHT22;34178;50.904;11.560;2022-10-16T07:28:29;15.20;99.90
48376;DHT22;34178;50.904;11.560;2022-10-16T07:30:55;15.40;99.90
48376;DHT22;34178;50.904;11.560;2022-10-16T07:33:21;15.50;99.90
48376;DHT22;34178;50.904;11.560;2022-10-16T07:35:51;15.60;99.90
48376;DHT22;34178;50.904;11.560;2022-10-16T07:38:17;15.70;99.90
48376;DHT22;34178;50.904;11.560;2022-10-16T07:40:43;15.90;99.90
48376;DHT22;34178;50.904;11.560;2022-10-16T07:43:08;16.00;99.90
48376;DHT22;34178;50.904;11.560;2022-10-16T07:45:34;16.00;99.90
48376;DHT22;34178;50.904;11.560;2022-10-16T07:47:59;16.10;99.90
48376;DHT22;34178;50.904;11.560;2022-10-16T07:50:25;16.20;99.90
48376;DHT22;34178;50.904;11.560;2022-10-16T07:52:51;16.20;99.90
48376;DHT22;34178;50.904;11.560;2022-10-16T07:55:17;16.20;99.90
48376;DHT22;34178;50.904;11.560;2022-10-16T07:57:42;16.30;99.90
48376;DHT22;34178;50.904;11.560;2022-10-16T08:00:08;16.30;99.90
48376;DHT22;34178;50.904;11.560;2022-10-16T08:02:41;16.40;99.90
48376;DHT22;34178;50.904;11.560;2022-10-16T08:05:07;16.40;99.90
48376;DHT22;34178;50.904;11.560;2022-10-16T08:07:33;16.40;99.90
48376;DHT22;34178;50.904;11.560;2022-10-16T08:09:58;16.40;99.90
48376;DHT22;34178;50.904;11.560;2022-10-16T08:12:26;16.40;99.90
48376;DHT22;34178;50.904;11.560;2022-10-16T08:14:51;16.50;99.90
48376;DHT22;34178;50.904;11.560;2022-10-16T08:17:17;16.60;99.90
48376;DHT22;34178;50.904;11.560;2022-10-16T08:19:46;16.60;99.90
48376;DHT22;34178;50.904;11.560;2022-10-16T08:22:13;16.70;99.90
48376;DHT22;34178;50.904;11.560;2022-10-16T08:24:40;16.80;99.90
48376;DHT22;34178;50.904;11.560;2022-10-16T08:27:05;16.90;99.90
48376;DHT22;34178;50.904;11.560;2022-10-16T08:29:32;16.90;99.90
48376;DHT22;34178;50.904;11.560;2022-10-16T08:31:57;16.90;99.90
48376;DHT22;34178;50.904;11.560;2022-10-16T08:34:23;17.00;99.90
48376;DHT22;34178;50.904;11.560;2022-10-16T08:36:48;17.10;99.90
48376;DHT22;34178;50.904;11.560;2022-10-16T08:39:15;17.10;99.90
48376;DHT22;34178;50.904;11.560;2022-10-16T08:42:09;17.10;99.90
48376;DHT22;34178;50.904;11.560;2022-10-16T08:49:59;17.20;99.90
48376;DHT22;34178;50.904;11.560;2022-10-16T08:52:32;17.30;99.90
48376;DHT22;34178;50.904;11.560;2022-10-16T08:55:01;17.30;99.90
48376;DHT22;34178;50.904;11.560;2022-10-16T08:57:27;17.30;99.90
48376;DHT22;34178;50.904;11.560;2022-10-16T08:59:53;17.30;99.90
48376;DHT22;34178;50.904;11.560;2022-10-16T09:02:58;17.20;99.90
48376;DHT22;34178;50.904;11.560;2022-10-16T09:05:24;17.30;99.90
48376;DHT22;34178;50.904;11.560;2022-10-16T09:10:38;17.60;99.90
48376;DHT22;34178;50.904;11.560;2022-10-16T09:13:28;17.90;99.90
48376;DHT22;34178;50.904;11.560;2022-10-16T09:16:24;18.00;99.90
48376;DHT22;34178;50.904;11.560;2022-10-16T09:21:48;18.20;99.90
48376;DHT22;34178;50.904;11.560;2022-10-16T09:24:19;18.20;99.90
48376;DHT22;34178;50.904;11.560;2022-10-16T09:26:46;18.40;99.90
48376;DHT22;34178;50.904;11.560;2022-10-16T09:29:17;18.40;99.90
48376;DHT22;34178;50.904;11.560;2022-10-16T09:31:45;18.50;99.90
48376;DHT22;34178;50.904;11.560;2022-10-16T09:34:35;18.60;99.90
48376;DHT22;34178;50.904;11.560;2022-10-16T09:37:07;18.70;99.90
48376;DHT22;34178;50.904;11.560;2022-10-16T09:39:51;18.80;99.90
48376;DHT22;34178;50.904;11.560;2022-10-16T09:42:27;18.90;99.90
48376;DHT22;34178;50.904;11.560;2022-10-16T09:44:56;19.00;99.90
48376;DHT22;34178;50.904;11.560;2022-10-16T09:47:30;19.10;99.90
48376;DHT22;34178;50.904;11.560;2022-10-16T09:50:19;19.10;99.90
48376;DHT22;34178;50.904;11.560;2022-10-16T09:52:48;19.10;99.90
48376;DHT22;34178;50.904;11.560;2022-10-16T09:55:16;19.10;99.90
48376;DHT22;34178;50.904;11.560;2022-10-16T09:57:53;19.20;99.90
48376;DHT22;34178;50.904;11.560;2022-10-16T10:00:20;19.10;99.90
48376;DHT22;34178;50.904;11.560;2022-10-16T10:02:46;19.10;99.90
48376;DHT22;34178;50.904;11.560;2022-10-16T10:05:30;19.20;99.90
48376;DHT22;34178;50.904;11.560;2022-10-16T10:08:03;19.20;99.90
48376;DHT22;34178;50.904;11.560;2022-10-16T10:10:39;19.20;99.90
48376;DHT22;34178;50.904;11.560;2022-10-16T10:13:20;19.20;99.90
48376;DHT22;34178;50.904;11.560;2022-10-16T10:15:47;19.20;99.90
48376;DHT22;34178;50.904;11.560;2022-10-16T10:18:18;19.30;99.90
48376;DHT22;34178;50.904;11.560;2022-10-16T10:20:57;19.40;99.90
48376;DHT22;34178;50.904;11.560;2022-10-16T10:23:26;19.50;99.90
48376;DHT22;34178;50.904;11.560;2022-10-16T10:29:03;19.70;99.90
48376;DHT22;34178;50.904;11.560;2022-10-16T10:34:23;20.00;99.90
48376;DHT22;34178;50.904;11.560;2022-10-16T10:37:18;20.20;99.90
48376;DHT22;34178;50.904;11.560;2022-10-16T10:45:28;20.60;99.90
48376;DHT22;34178;50.904;11.560;2022-10-16T10:50:43;20.30;99.90
48376;DHT22;34178;50.904;11.560;2022-10-16T10:58:44;20.20;99.90
48376;DHT22;34178;50.904;11.560;2022-10-16T11:01:16;20.20;99.90
48376;DHT22;34178;50.904;11.560;2022-10-16T11:06:44;20.30;99.90
48376;DHT22;34178;50.904;11.560;2022-10-16T11:09:21;20.20;99.90
48376;DHT22;34178;50.904;11.560;2022-10-16T11:14:43;20.20;99.90
48376;DHT22;34178;50.904;11.560;2022-10-16T11:17:19;20.20;99.90
48376;DHT22;34178;50.904;11.560;2022-10-16T11:25:27;20.00;99.90
48376;DHT22;34178;50.904;11.560;2022-10-16T11:28:23;20.00;99.90
48376;DHT22;34178;50.904;11.560;2022-10-16T11:36:27;20.10;99.90
48376;DHT22;34178;50.904;11.560;2022-10-16T11:39:21;20.20;99.90
48376;DHT22;34178;50.904;11.560;2022-10-16T11:47:34;20.60;99.90
48376;DHT22;34178;50.904;11.560;2022-10-16T11:52:53;20.60;99.90
48376;DHT22;34178;50.904;11.560;2022-10-16T11:55:24;20.80;99.90
48376;DHT22;34178;50.904;11.560;2022-10-16T11:58:04;20.80;99.90
48376;DHT22;34178;50.904;11.560;2022-10-16T12:00:45;20.80;99.90
48376;DHT22;34178;50.904;11.560;2022-10-16T12:03:20;20.80;99.90
48376;DHT22;34178;50.904;11.560;2022-10-16T12:08:28;21.00;99.90
48376;DHT22;34178;50.904;11.560;2022-10-16T12:11:09;21.00;99.90
48376;DHT22;34178;50.904;11.560;2022-10-16T12:13:45;21.10;99.90
48376;DHT22;34178;50.904;11.560;2022-10-16T12:36:49;22.20;99.90
48376;DHT22;34178;50.904;11.560;2022-10-16T12:39:25;22.10;99.90
48376;DHT22;34178;50.904;11.560;2022-10-16T12:44:45;22.00;99.90
48376;DHT22;34178;50.904;11.560;2022-10-16T16:46:08;17.20;99.90
48376;DHT22;34178;50.904;11.560;2022-10-16T16:51:12;16.90;99.90
48376;DHT22;34178;50.904;11.560;2022-10-16T16:53:41;16.30;99.90
48376;DHT22;34178;50.904;11.560;2022-10-16T16:56:07;16.20;99.90
48376;DHT22;34178;50.904;11.560;2022-10-16T18:32:56;15.70;99.90
48376;DHT22;34178;50.904;11.560;2022-10-16T18:35:22;15.60;99.90
48376;DHT22;34178;50.904;11.560;2022-10-16T18:37:48;15.50;99.90
48376;DHT22;34178;50.904;11.560;2022-10-16T18:40:14;15.40;99.90
48376;DHT22;34178;50.904;11.560;2022-10-16T18:42:39;15.40;99.90
48376;DHT22;34178;50.904;11.560;2022-10-16T18:45:05;15.20;99.90
48376;DHT22;34178;50.904;11.560;2022-10-16T18:47:31;15.10;99.90
48376;DHT22;34178;50.904;11.560;2022-10-16T18:49:59;15.00;99.90
48376;DHT22;34178;50.904;11.560;2022-10-16T18:52:25;15.00;99.90
48376;DHT22;34178;50.904;11.560;2022-10-16T18:54:55;14.90;99.90
48376;DHT22;34178;50.904;11.560;2022-10-16T18:59:56;14.90;99.90
48376;DHT22;34178;50.904;11.560;2022-10-16T19:02:22;14.80;99.90
48376;DHT22;34178;50.904;11.560;2022-10-16T19:04:47;14.70;99.90
48376;DHT22;34178;50.904;11.560;2022-10-16T19:17:35;14.60;99.90
48376;DHT22;34178;50.904;11.560;2022-10-16T19:20:04;14.60;99.90
48376;DHT22;34178;50.904;11.560;2022-10-16T19:22:30;14.60;99.90
48376;DHT22;34178;50.904;11.560;2022-10-16T19:25:15;14.60;99.90
48376;DHT22;34178;50.904;11.560;2022-10-16T19:27:41;14.50;99.90
48376;DHT22;34178;50.904;11.560;2022-10-16T19:30:07;14.50;99.90
48376;DHT22;34178;50.904;11.560;2022-10-16T19:32:33;14.50;99.90
48376;DHT22;34178;50.904;11.560;2022-10-16T19:34:59;14.50;99.90
48376;DHT22;34178;50.904;11.560;2022-10-16T19:37:24;14.50;99.90
48376;DHT22;34178;50.904;11.560;2022-10-16T19:39:52;14.40;99.90
48376;DHT22;34178;50.904;11.560;2022-10-16T19:42:17;14.40;99.90
48376;DHT22;34178;50.904;11.560;2022-10-16T19:44:43;14.40;99.90
48376;DHT22;34178;50.904;11.560;2022-10-16T19:47:09;14.40;99.90
48376;DHT22;34178;50.904;11.560;2022-10-16T19:49:35;14.30;99.90
48376;DHT22;34178;50.904;11.560;2022-10-16T19:52:00;14.30;99.90
48376;DHT22;34178;50.904;11.560;2022-10-16T19:54:26;14.30;99.90
48376;DHT22;34178;50.904;11.560;2022-10-16T19:56:51;14.30;99.90
48376;DHT22;34178;50.904;11.560;2022-10-16T19:59:17;14.30;99.90
48376;DHT22;34178;50.904;11.560;2022-10-16T20:01:45;14.20;99.90
48376;DHT22;34178;50.904;11.560;2022-10-16T20:04:11;14.20;99.90
48376;DHT22;34178;50.904;11.560;2022-10-16T20:06:37;14.20;99.90
48376;DHT22;34178;50.904;11.560;2022-10-16T20:09:03;14.20;99.90
48376;DHT22;34178;50.904;11.560;2022-10-16T20:11:32;14.10;99.90
48376;DHT22;34178;50.904;11.560;2022-10-16T20:13:58;14.10;99.90
48376;DHT22;34178;50.904;11.560;2022-10-16T20:16:25;14.10;99.90
48376;DHT22;34178;50.904;11.560;2022-10-16T20:18:52;14.00;99.90
48376;DHT22;34178;50.904;11.560;2022-10-16T20:21:23;14.00;99.90
48376;DHT22;34178;50.904;11.560;2022-10-16T20:23:50;14.00;99.90
48376;DHT22;34178;50.904;11.560;2022-10-16T20:26:18;14.00;99.90
48376;DHT22;34178;50.904;11.560;2022-10-16T20:28:45;14.00;99.90
48376;DHT22;34178;50.904;11.560;2022-10-16T20:31:14;14.00;99.90
48376;DHT22;34178;50.904;11.560;2022-10-16T20:33:43;14.00;99.90
48376;DHT22;34178;50.904;11.560;2022-10-16T20:36:13;14.00;99.90
48376;DHT22;34178;50.904;11.560;2022-10-16T20:38:39;14.00;99.90
48376;DHT22;34178;50.904;11.560;2022-10-16T20:41:05;13.90;99.90
48376;DHT22;34178;50.904;11.560;2022-10-16T20:43:33;14.00;99.90
48376;DHT22;34178;50.904;11.560;2022-10-16T20:46:03;13.90;99.90
48376;DHT22;34178;50.904;11.560;2022-10-16T20:48:29;13.90;99.90
48376;DHT22;34178;50.904;11.560;2022-10-16T20:50:55;13.90;99.90
48376;DHT22;34178;50.904;11.560;2022-10-16T20:53:21;13.80;99.90
48376;DHT22;34178;50.904;11.560;2022-10-16T20:55:47;13.80;99.90
48376;DHT22;34178;50.904;11.560;2022-10-16T20:58:13;13.80;99.90
48376;DHT22;34178;50.904;11.560;2022-10-16T21:00:39;13.70;99.90
48376;DHT22;34178;50.904;11.560;2022-10-16T21:03:04;13.70;99.90
48376;DHT22;34178;50.904;11.560;2022-10-16T21:05:30;13.70;99.90
48376;DHT22;34178;50.904;11.560;2022-10-16T21:07:59;13.70;99.90
48376;DHT22;34178;50.904;11.560;2022-10-16T21:10:24;13.80;99.90
48376;DHT22;34178;50.904;11.560;2022-10-16T21:12:53;13.80;99.90
48376;DHT22;34178;50.904;11.560;2022-10-16T21:15:22;13.80;99.90
48376;DHT22;34178;50.904;11.560;2022-10-16T21:17:47;13.70;99.90
48376;DHT22;34178;50.904;11.560;2022-10-16T21:20:13;13.80;99.90
48376;DHT22;34178;50.904;11.560;2022-10-16T21:22:39;13.80;99.90
48376;DHT22;34178;50.904;11.560;2022-10-16T21:25:05;13.70;99.90
48376;DHT22;34178;50.904;11.560;2022-10-16T21:27:39;13.70;99.90
48376;DHT22;34178;50.904;11.560;2022-10-16T21:30:06;13.70;99.90
48376;DHT22;34178;50.904;11.560;2022-10-16T21:32:38;13.70;99.90
48376;DHT22;34178;50.904;11.560;2022-10-16T21:35:05;13.80;99.90
48376;DHT22;34178;50.904;11.560;2022-10-16T21:37:31;13.80;99.90
48376;DHT22;34178;50.904;11.560;2022-10-16T21:39:57;13.70;99.90
48376;DHT22;34178;50.904;11.560;2022-10-16T21:42:23;13.70;99.90
48376;DHT22;34178;50.904;11.560;2022-10-16T21:44:48;13.70;99.90
48376;DHT22;34178;50.904;11.560;2022-10-16T21:47:14;13.70;99.90
48376;DHT22;34178;50.904;11.560;2022-10-16T21:49:40;13.70;99.90
48376;DHT22;34178;50.904;11.560;2022-10-16T21:52:05;13.70;99.90
48376;DHT22;34178;50.904;11.560;2022-10-16T21:54:31;13.70;99.90
48376;DHT22;34178;50.904;11.560;2022-10-16T21:56:56;13.80;99.90
48376;DHT22;34178;50.904;11.560;2022-10-16T21:59:22;13.70;99.90
48376;DHT22;34178;50.904;11.560;2022-10-16T22:01:48;13.70;99.90
48376;DHT22;34178;50.904;11.560;2022-10-16T22:04:14;13.70;99.90
48376;DHT22;34178;50.904;11.560;2022-10-16T22:06:41;13.70;99.90
48376;DHT22;34178;50.904;11.560;2022-10-16T22:09:07;13.70;99.90
48376;DHT22;34178;50.904;11.560;2022-10-16T22:11:35;13.70;99.90
48376;DHT22;34178;50.904;11.560;2022-10-16T22:14:06;13.50;99.90
48376;DHT22;34178;50.904;11.560;2022-10-16T22:16:32;13.60;99.90
48376;DHT22;34178;50.904;11.560;2022-10-16T22:18:59;13.50;99.90
48376;DHT22;34178;50.904;11.560;2022-10-16T22:21:26;13.40;99.90
48376;DHT22;34178;50.904;11.560;2022-10-16T22:23:53;13.40;99.90
48376;DHT22;34178;50.904;11.560;2022-10-16T22:26:18;13.30;99.90
48376;DHT22;34178;50.904;11.560;2022-10-16T22:28:44;13.30;99.90
48376;DHT22;34178;50.904;11.560;2022-10-16T22:31:11;13.30;99.90
48376;DHT22;34178;50.904;11.560;2022-10-16T22:33:37;13.20;99.90
48376;DHT22;34178;50.904;11.560;2022-10-16T22:36:05;13.20;99.90
48376;DHT22;34178;50.904;11.560;2022-10-16T22:38:32;13.20;99.90
48376;DHT22;34178;50.904;11.560;2022-10-16T22:41:12;13.10;99.90
48376;DHT22;34178;50.904;11.560;2022-10-16T22:43:40;13.10;99.90
48376;DHT22;34178;50.904;11.560;2022-10-16T22:46:09;13.00;99.90
48376;DHT22;34178;50.904;11.560;2022-10-16T22:48:36;13.00;99.90
48376;DHT22;34178;50.904;11.560;2022-10-16T22:51:03;13.00;99.90
48376;DHT22;34178;50.904;11.560;2022-10-16T22:53:29;13.00;99.90
48376;DHT22;34178;50.904;11.560;2022-10-16T22:55:55;12.90;99.90
48376;DHT22;34178;50.904;11.560;2022-10-16T22:58:21;12.80;99.90
48376;DHT22;34178;50.904;11.560;2022-10-16T23:00:47;12.80;99.90
48376;DHT22;34178;50.904;11.560;2022-10-16T23:03:13;12.70;99.90
48376;DHT22;34178;50.904;11.560;2022-10-16T23:05:39;12.70;99.90
48376;DHT22;34178;50.904;11.560;2022-10-16T23:08:05;12.60;99.90
48376;DHT22;34178;50.904;11.560;2022-10-16T23:10:32;12.60;99.90
48376;DHT22;34178;50.904;11.560;2022-10-16T23:12:58;12.60;99.90
48376;DHT22;34178;50.904;11.560;2022-10-16T23:15:23;12.50;99.90
48376;DHT22;34178;50.904;11.560;2022-10-16T23:17:49;12.50;99.90
48376;DHT22;34178;50.904;11.560;2022-10-16T23:20:15;12.50;99.90
48376;DHT22;34178;50.904;11.560;2022-10-16T23:22:40;12.40;99.90
48376;DHT22;34178;50.904;11.560;2022-10-16T23:25:06;12.40;99.90
48376;DHT22;34178;50.904;11.560;2022-10-16T23:27:33;12.40;99.90
48376;DHT22;34178;50.904;11.560;2022-10-16T23:29:59;12.40;99.90
48376;DHT22;34178;50.904;11.560;2022-10-16T23:32:24;12.30;99.90
48376;DHT22;34178;50.904;11.560;2022-10-16T23:34:50;12.30;99.90
48376;DHT22;34178;50.904;11.560;2022-10-16T23:37:16;12.30;99.90
48376;DHT22;34178;50.904;11.560;2022-10-16T23:39:41;12.20;99.90
48376;DHT22;34178;50.904;11.560;2022-10-16T23:42:07;12.20;99.90
48376;DHT22;34178;50.904;11.560;2022-10-16T23:44:33;12.20;99.90
48376;DHT22;34178;50.904;11.560;2022-10-16T23:46:59;12.10;99.90
48376;DHT22;34178;50.904;11.560;2022-10-16T23:49:25;12.10;99.90
48376;DHT22;34178;50.904;11.560;2022-10-16T23:51:50;12.10;99.90
48376;DHT22;34178;50.904;11.560;2022-10-16T23:54:16;12.00;99.90
48376;DHT22;34178;50.904;11.560;2022-10-16T23:56:41;12.10;99.90
48376;DHT22;34178;50.904;11.560;2022-10-16T23:59:07;12.00;99.90
